LLZ weather

Lanzillota Airport
Ciudad de Lavalle, Mendoza Province, Argentina

Public forecast

Using degrees Celsius for public forecast. Weather courtesy of forecast.io.

METAR (pilot weather report)

Closest report is El Plumerillo Airport, 10.4 nm (19.2 km) SW. Retrieved 2019/07/22 11:00 UTC (43 minutes ago):

SAME 221100Z 00000KT CAVOK 05/M03 Q1020

TAF (pilot weather forecast)

Closest forecast is El Plumerillo Airport, 10.4 nm (19.2 km) SW. Retrieved 2019/07/22 06:00 UTC (6 hours ago):

TAF SAME 220500Z 2206/2306 18005KT CAVOK TX13/2218Z TN03/2211Z BECMG 2213/2216 09010KT 9999 SCT040